Time;durP1;ratioP1;P1;durP2;ratioP2;P2;SDS_P1;SDS_P2;PMS_P1;PMS_P2;Temp;Humidity;BMP_temperature;BMP_pressure;BME280_temperature;BME280_humidity;BME280_pressure;Samples;Min_cycle;Max_cycle;Signal;HPM_P1;HPM_P2
2021/04/16 00:00:25;;;;;;;12.27;4.00;;;1.70;99.90;;;;;;2092791;28;20523;-68
2021/04/16 00:01:26;;;;;;;13.65;5.10;;;1.60;99.90;;;;;;2088520;28;20037;-68
2021/04/16 00:02:27;;;;;;;12.55;4.63;;;1.60;99.90;;;;;;2087939;28;20025;-67
2021/04/16 00:03:28;;;;;;;11.85;4.28;;;1.50;99.90;;;;;;2094484;28;20144;-68
2021/04/16 00:04:29;;;;;;;14.32;4.30;;;1.60;99.90;;;;;;2094126;28;20491;-68
2021/04/16 00:05:29;;;;;;;14.50;4.35;;;1.60;99.90;;;;;;2092959;28;20052;-68
2021/04/16 00:06:30;;;;;;;11.10;4.30;;;1.70;99.90;;;;;;2093988;28;20025;-68
2021/04/16 00:07:31;;;;;;;8.77;4.10;;;1.70;99.90;;;;;;2087542;28;20591;-68
2021/04/16 00:08:33;;;;;;;15.95;4.40;;;1.80;99.90;;;;;;2095491;28;20021;-68
2021/04/16 00:09:35;;;;;;;;;;;1.90;99.90;;;;;;2095207;28;20029;-68
2021/04/16 00:10:41;;;;;;;22.43;4.60;;;2.00;99.90;;;;;;2089394;28;19999;-68
2021/04/16 00:11:42;;;;;;;15.65;4.25;;;2.10;99.90;;;;;;2090139;28;20287;-68
2021/04/16 00:12:43;;;;;;;22.58;4.03;;;2.10;99.90;;;;;;2089392;28;20033;-68
2021/04/16 00:13:44;;;;;;;26.15;5.88;;;2.20;99.90;;;;;;2081575;28;20041;-68
2021/04/16 00:14:45;;;;;;;15.82;4.68;;;2.20;99.90;;;;;;2085721;28;20107;-68
2021/04/16 00:15:46;;;;;;;15.90;4.32;;;2.20;99.90;;;;;;2089833;28;20519;-68
2021/04/16 00:16:48;;;;;;;15.55;4.20;;;2.10;99.90;;;;;;2082395;28;20108;-68
2021/04/16 00:17:49;;;;;;;9.13;3.90;;;2.10;99.90;;;;;;2081281;28;20076;-68
2021/04/16 00:18:50;;;;;;;11.32;3.92;;;2.00;99.90;;;;;;2081073;28;20030;-68
2021/04/16 00:19:51;;;;;;;11.80;4.00;;;2.00;99.90;;;;;;2083455;28;20050;-68
2021/04/16 00:20:53;;;;;;;16.52;3.80;;;2.00;99.90;;;;;;2083286;28;20485;-68
2021/04/16 00:21:53;;;;;;;11.50;4.30;;;1.90;99.90;;;;;;2084158;28;20094;-69
2021/04/16 00:22:54;;;;;;;11.07;3.97;;;1.80;99.90;;;;;;2099257;28;20111;-68
2021/04/16 00:23:55;;;;;;;20.15;5.03;;;1.80;99.90;;;;;;2096543;28;20137;-68
2021/04/16 00:24:56;;;;;;;20.50;4.78;;;1.90;99.90;;;;;;2084134;28;20013;-69
2021/04/16 00:25:57;;;;;;;9.93;3.85;;;1.90;99.90;;;;;;2081173;28;20029;-68
2021/04/16 00:26:58;;;;;;;10.05;3.85;;;2.00;99.90;;;;;;2088749;28;20067;-68
2021/04/16 00:28:00;;;;;;;18.20;4.47;;;2.00;99.90;;;;;;2088398;28;20047;-68
2021/04/16 00:29:01;;;;;;;13.80;4.47;;;2.00;99.90;;;;;;2088714;28;20408;-68
2021/04/16 00:30:04;;;;;;;16.73;4.82;;;2.00;99.90;;;;;;2087398;28;20064;-68
2021/04/16 00:31:16;;;;;;;11.30;4.28;;;2.00;99.90;;;;;;2087178;28;20123;-68
2021/04/16 00:32:17;;;;;;;13.95;3.80;;;1.90;99.90;;;;;;2081145;28;20036;-68
2021/04/16 00:33:18;;;;;;;13.30;4.35;;;2.00;99.90;;;;;;2084076;28;20036;-68
2021/04/16 00:34:20;;;;;;;16.52;4.55;;;2.00;99.90;;;;;;2089761;28;20106;-68
2021/04/16 00:35:21;;;;;;;13.00;4.03;;;2.00;99.90;;;;;;2089215;28;20013;-68
2021/04/16 00:36:22;;;;;;;11.13;3.65;;;2.00;99.90;;;;;;2086015;28;21135;-68
2021/04/16 00:37:23;;;;;;;15.18;4.32;;;2.00;99.90;;;;;;2088723;28;20023;-69
2021/04/16 00:38:24;;;;;;;15.02;4.05;;;2.10;99.90;;;;;;2088624;28;20037;-68
2021/04/16 00:39:25;;;;;;;13.20;4.00;;;2.10;99.90;;;;;;2089689;28;20025;-68
2021/04/16 00:40:31;;;;;;;20.17;4.50;;;2.10;99.90;;;;;;2088504;28;20784;-68
2021/04/16 00:41:32;;;;;;;16.20;3.90;;;2.10;99.90;;;;;;2089062;28;20136;-69
2021/04/16 00:42:33;;;;;;;13.18;4.07;;;2.10;99.90;;;;;;2084539;28;20025;-68
2021/04/16 00:43:36;;;;;;;9.13;3.33;;;2.20;99.90;;;;;;2088399;28;20651;-68
2021/04/16 00:44:38;;;;;;;16.50;3.75;;;2.10;99.90;;;;;;2084384;28;20032;-68
2021/04/16 00:45:39;;;;;;;16.50;4.88;;;2.10;99.90;;;;;;2085530;28;20517;-68
2021/04/16 00:46:49;;;;;;;22.90;5.15;;;2.00;99.90;;;;;;2089672;28;20032;-68
2021/04/16 00:47:54;;;;;;;12.93;4.03;;;1.90;99.90;;;;;;2088873;28;20021;-69
2021/04/16 00:49:00;;;;;;;12.45;4.53;;;1.80;99.90;;;;;;2077358;28;20110;-68
2021/04/16 00:50:09;;;;;;;10.55;3.65;;;1.80;99.90;;;;;;2080646;28;20032;-68
2021/04/16 00:51:21;;;;;;;10.27;3.35;;;1.70;99.90;;;;;;2086557;28;20056;-68
2021/04/16 00:52:32;;;;;;;18.35;4.25;;;1.70;99.90;;;;;;2086983;28;20043;-68
2021/04/16 00:53:35;;;;;;;13.50;3.78;;;1.60;99.90;;;;;;2089853;28;20036;-69
2021/04/16 00:54:38;;;;;;;14.13;3.72;;;1.60;99.90;;;;;;2081221;28;20017;-69
2021/04/16 00:55:39;;;;;;;17.38;4.10;;;1.50;99.90;;;;;;2085871;28;20024;-69
2021/04/16 00:56:40;;;;;;;13.75;3.83;;;1.50;99.90;;;;;;2088755;28;20031;-69
2021/04/16 00:57:41;;;;;;;15.30;4.50;;;1.50;99.90;;;;;;2087149;28;20116;-69
2021/04/16 00:58:42;;;;;;;13.50;4.45;;;1.50;99.90;;;;;;2087447;28;20526;-68
2021/04/16 00:59:51;;;;;;;18.25;3.72;;;1.50;99.90;;;;;;2080266;28;20029;-68
2021/04/16 01:00:54;;;;;;;14.80;3.75;;;1.40;99.90;;;;;;2083877;28;20029;-68
2021/04/16 01:02:00;;;;;;;24.77;5.40;;;1.40;99.90;;;;;;2088066;28;20090;-68
2021/04/16 01:03:01;;;;;;;17.90;4.07;;;1.30;99.90;;;;;;2086018;28;20543;-68
2021/04/16 01:04:01;;;;;;;15.40;4.68;;;1.30;99.90;;;;;;2086653;28;20054;-67
2021/04/16 01:05:05;;;;;;;11.77;4.05;;;1.20;99.90;;;;;;2082162;28;20500;-68
2021/04/16 01:06:08;;;;;;;16.38;4.07;;;1.20;99.90;;;;;;2083395;28;20028;-68
2021/04/16 01:07:10;;;;;;;14.90;4.00;;;1.20;99.90;;;;;;2088494;28;20480;-67
2021/04/16 01:08:11;;;;;;;;;;;1.10;99.90;;;;;;2088708;28;20067;-67
2021/04/16 01:09:12;;;;;;;15.93;3.85;;;1.10;99.90;;;;;;2081503;28;19921;-67
2021/04/16 01:10:14;;;;;;;14.02;3.95;;;1.00;99.90;;;;;;2089234;28;20090;-67
2021/04/16 01:11:15;;;;;;;12.07;3.95;;;1.00;99.90;;;;;;2079341;28;20041;-67
2021/04/16 01:12:17;;;;;;;13.25;3.72;;;1.00;99.90;;;;;;2087857;28;20092;-67
2021/04/16 01:13:21;;;;;;;14.40;4.30;;;1.00;99.90;;;;;;2087903;28;20021;-67
2021/04/16 01:14:23;;;;;;;11.88;3.97;;;1.00;99.90;;;;;;2088971;28;20021;-67
2021/04/16 01:15:29;;;;;;;;;;;1.00;99.90;;;;;;2089970;28;20021;-66
2021/04/16 01:16:32;;;;;;;11.02;3.50;;;0.90;99.90;;;;;;2088739;28;19978;-66
2021/04/16 01:17:33;;;;;;;18.08;4.05;;;0.90;99.90;;;;;;2088964;28;20108;-66
2021/04/16 01:18:37;;;;;;;9.40;3.33;;;0.90;99.90;;;;;;2089161;28;20479;-66
2021/04/16 01:20:16;;;;;;;9.07;3.80;;;0.90;99.90;;;;;;2088467;28;20017;-66
2021/04/16 01:21:24;;;;;;;13.75;3.88;;;0.90;99.90;;;;;;2080654;28;20077;-65
2021/04/16 01:22:33;;;;;;;14.07;4.13;;;0.90;99.90;;;;;;2085885;28;20029;-65
2021/04/16 01:23:42;;;;;;;11.02;3.95;;;0.90;99.90;;;;;;2103715;28;20028;-65
2021/04/16 01:24:43;;;;;;;16.30;4.05;;;0.90;99.90;;;;;;2097064;28;20023;-65
2021/04/16 01:25:44;;;;;;;8.35;3.35;;;0.80;99.90;;;;;;2087965;28;20025;-65
2021/04/16 01:26:44;;;;;;;12.30;3.70;;;0.80;99.90;;;;;;2087867;28;20114;-65
2021/04/16 01:27:45;;;;;;;16.85;4.10;;;0.80;99.90;;;;;;2088658;28;20029;-65
2021/04/16 01:28:47;;;;;;;18.10;3.55;;;0.80;99.90;;;;;;2080307;28;20516;-65
2021/04/16 01:29:47;;;;;;;12.25;3.88;;;0.80;99.90;;;;;;2080590;28;20033;-64
2021/04/16 01:31:09;;;;;;;10.95;3.97;;;0.80;99.90;;;;;;2087426;28;20118;-63
2021/04/16 01:32:28;;;;;;;14.93;4.32;;;0.70;99.90;;;;;;2080061;28;20025;-63
2021/04/16 01:33:32;;;;;;;15.45;4.82;;;0.60;99.90;;;;;;2081701;28;20025;-63
2021/04/16 01:34:33;;;;;;;14.65;4.35;;;0.60;99.90;;;;;;2080874;28;20040;-63
2021/04/16 01:35:35;;;;;;;12.90;3.70;;;0.60;99.90;;;;;;2087885;28;20503;-63
2021/04/16 01:36:36;;;;;;;20.02;4.72;;;0.60;99.90;;;;;;2085507;28;20525;-63
2021/04/16 01:37:37;;;;;;;13.82;4.13;;;0.50;99.90;;;;;;2080785;28;20026;-63
2021/04/16 01:38:42;;;;;;;12.57;3.65;;;0.50;99.90;;;;;;2080092;28;20083;-63
2021/04/16 01:39:43;;;;;;;13.57;3.78;;;0.40;99.90;;;;;;2081362;28;20363;-63
2021/04/16 01:40:44;;;;;;;16.45;3.78;;;0.50;99.90;;;;;;2080080;28;20036;-63
2021/04/16 01:41:45;;;;;;;13.57;3.83;;;0.40;99.90;;;;;;2082846;28;20029;-63
2021/04/16 01:42:45;;;;;;;17.25;4.13;;;0.40;99.90;;;;;;2079788;28;20038;-63
2021/04/16 01:43:55;;;;;;;10.77;3.85;;;0.40;99.90;;;;;;2079856;28;20096;-63
2021/04/16 01:44:55;;;;;;;16.10;4.32;;;0.40;99.90;;;;;;2080797;28;20478;-63
2021/04/16 01:46:19;;;;;;;10.95;3.70;;;0.30;99.90;;;;;;2085651;28;20024;-63
2021/04/16 01:47:20;;;;;;;10.63;4.07;;;0.30;99.90;;;;;;2085473;28;20091;-63
2021/04/16 01:48:21;;;;;;;7.88;3.53;;;0.30;99.90;;;;;;2078060;28;20017;-64
2021/04/16 01:49:23;;;;;;;16.52;3.97;;;0.30;99.90;;;;;;2071848;28;20033;-64
2021/04/16 01:50:25;;;;;;;10.55;3.83;;;0.30;99.90;;;;;;2076795;28;20424;-64
2021/04/16 01:51:33;;;;;;;10.52;3.40;;;0.30;99.90;;;;;;2071917;28;20044;-64
2021/04/16 01:52:35;;;;;;;21.25;3.70;;;0.30;99.90;;;;;;2079007;28;20529;-64
2021/04/16 01:53:37;;;;;;;14.88;3.75;;;0.20;99.90;;;;;;2075368;28;20523;-64
2021/04/16 01:54:47;;;;;;;14.02;4.18;;;0.20;99.90;;;;;;2072400;28;20045;-64
2021/04/16 01:55:51;;;;;;;17.00;3.88;;;0.20;99.90;;;;;;2074698;28;20054;-64
2021/04/16 01:57:05;;;;;;;14.10;4.40;;;0.20;99.90;;;;;;2078863;28;20428;-64
2021/04/16 01:58:05;;;;;;;15.88;3.67;;;0.20;99.90;;;;;;2072647;28;20018;-63
2021/04/16 01:59:22;;;;;;;11.88;4.05;;;0.20;99.90;;;;;;2078610;28;20116;-64
2021/04/16 02:00:31;;;;;;;14.20;4.07;;;0.20;99.90;;;;;;2080183;28;20067;-64
2021/04/16 02:01:32;;;;;;;10.20;3.60;;;0.10;99.90;;;;;;2080272;28;20042;-64
2021/04/16 02:02:34;;;;;;;13.00;3.60;;;0.10;99.90;;;;;;2079924;28;20053;-64
2021/04/16 02:03:35;;;;;;;17.95;4.30;;;0.20;99.90;;;;;;2075292;28;20029;-64
2021/04/16 02:04:35;;;;;;;12.00;3.83;;;0.20;99.90;;;;;;2078304;28;20064;-64
2021/04/16 02:05:36;;;;;;;12.07;3.70;;;0.10;99.90;;;;;;2074513;28;20385;-63
2021/04/16 02:06:38;;;;;;;10.95;3.55;;;0.10;99.90;;;;;;2079493;28;20021;-64
2021/04/16 02:07:38;;;;;;;18.65;4.50;;;0.10;99.90;;;;;;2080184;28;20025;-64
2021/04/16 02:08:39;;;;;;;16.88;4.50;;;0.10;99.90;;;;;;2077829;28;20044;-64
2021/04/16 02:09:40;;;;;;;9.55;3.70;;;0.00;99.90;;;;;;2070193;28;20022;-64
2021/04/16 02:10:43;;;;;;;20.42;3.63;;;0.00;99.90;;;;;;2079895;28;20017;-63
2021/04/16 02:11:44;;;;;;;15.70;4.10;;;0.00;99.90;;;;;;2080085;28;20022;-63
2021/04/16 02:12:44;;;;;;;12.50;3.90;;;0.00;99.90;;;;;;2079756;28;20453;-64
2021/04/16 02:13:45;;;;;;;9.50;3.30;;;0.00;99.90;;;;;;2080583;28;20268;-63
2021/04/16 02:14:47;;;;;;;20.65;3.80;;;0.00;99.90;;;;;;2079418;28;20567;-64
2021/04/16 02:15:47;;;;;;;14.82;4.28;;;0.00;99.90;;;;;;2079964;28;20029;-64
2021/04/16 02:16:52;;;;;;;13.98;3.70;;;0.10;99.90;;;;;;2071264;28;20026;-64
2021/04/16 02:17:52;;;;;;;11.05;4.60;;;0.10;99.90;;;;;;2070667;28;20077;-63
2021/04/16 02:18:54;;;;;;;15.48;3.88;;;0.10;99.90;;;;;;2074730;28;20027;-63
2021/04/16 02:19:57;;;;;;;15.60;4.20;;;0.10;99.90;;;;;;2074313;28;20033;-63
2021/04/16 02:20:58;;;;;;;12.85;4.20;;;0.10;99.90;;;;;;2072144;28;20681;-64
2021/04/16 02:21:58;;;;;;;11.13;4.63;;;0.10;99.90;;;;;;2077017;28;20026;-63
2021/04/16 02:22:59;;;;;;;15.25;4.50;;;0.10;99.90;;;;;;2073293;28;20053;-63
2021/04/16 02:24:02;;;;;;;13.07;4.70;;;0.00;99.90;;;;;;2075881;28;20057;-64
2021/04/16 02:25:04;;;;;;;20.08;4.68;;;0.00;99.90;;;;;;2076758;28;20256;-63
2021/04/16 02:26:05;;;;;;;12.63;4.20;;;0.00;99.90;;;;;;2080564;28;20026;-63
2021/04/16 02:27:06;;;;;;;14.50;4.40;;;0.10;99.90;;;;;;2080249;28;20075;-64
2021/04/16 02:28:08;;;;;;;19.50;4.40;;;0.10;99.90;;;;;;2079562;28;20521;-63
2021/04/16 02:29:11;;;;;;;13.45;4.15;;;0.10;99.90;;;;;;2079478;28;20057;-64
2021/04/16 02:30:20;;;;;;;18.67;5.03;;;0.20;99.90;;;;;;2080029;28;20101;-63
2021/04/16 02:31:21;;;;;;;16.65;4.40;;;0.20;99.90;;;;;;2078108;28;20033;-64
2021/04/16 02:32:22;;;;;;;9.77;3.90;;;0.20;99.90;;;;;;2078182;28;20112;-64
2021/04/16 02:33:22;;;;;;;15.70;4.55;;;0.20;99.90;;;;;;2078443;28;20461;-64
2021/04/16 02:34:26;;;;;;;12.88;3.92;;;0.20;99.90;;;;;;2079683;28;20026;-63
2021/04/16 02:35:28;;;;;;;13.30;4.43;;;0.20;99.90;;;;;;2080108;28;20047;-64
2021/04/16 02:36:28;;;;;;;13.15;4.78;;;0.20;99.90;;;;;;2079893;28;20468;-64
2021/04/16 02:37:29;;;;;;;13.75;4.75;;;0.30;99.90;;;;;;2078212;28;20034;-64
2021/04/16 02:38:30;;;;;;;11.70;4.68;;;0.20;99.90;;;;;;2076042;28;20021;-63
2021/04/16 02:39:30;;;;;;;14.27;4.43;;;0.20;99.90;;;;;;2080339;28;20017;-64
2021/04/16 02:40:31;;;;;;;20.45;4.57;;;0.30;99.90;;;;;;2076001;28;20041;-63
2021/04/16 02:41:33;;;;;;;17.58;4.30;;;0.30;99.90;;;;;;2072834;28;20478;-64
2021/04/16 02:42:33;;;;;;;22.77;5.57;;;0.30;99.90;;;;;;2080291;28;20025;-63
2021/04/16 02:43:34;;;;;;;13.60;4.55;;;0.30;99.90;;;;;;2080410;28;20022;-63
2021/04/16 02:44:36;;;;;;;19.40;5.38;;;0.40;99.90;;;;;;2079295;28;20045;-64
2021/04/16 02:45:37;;;;;;;19.23;5.28;;;0.40;99.90;;;;;;2076285;28;20013;-63
2021/04/16 02:46:38;;;;;;;14.70;4.63;;;0.40;99.90;;;;;;2072456;28;20028;-64
2021/04/16 02:47:39;;;;;;;10.50;4.32;;;0.50;99.90;;;;;;2076323;28;20092;-64
2021/04/16 02:48:40;;;;;;;16.42;4.50;;;0.50;99.90;;;;;;2074565;28;20033;-64
2021/04/16 02:49:41;;;;;;;22.73;5.32;;;0.50;99.90;;;;;;2080315;28;20460;-64
2021/04/16 02:50:41;;;;;;;13.00;4.28;;;0.50;99.90;;;;;;2079813;28;20018;-64
2021/04/16 02:51:43;;;;;;;20.08;4.63;;;0.60;99.90;;;;;;2080418;28;20032;-64
2021/04/16 02:52:43;;;;;;;12.60;4.45;;;0.60;99.90;;;;;;2080477;28;20477;-64
2021/04/16 02:53:44;;;;;;;12.35;4.05;;;0.70;99.90;;;;;;2080031;28;20252;-64
2021/04/16 02:54:45;;;;;;;14.02;4.43;;;0.70;99.90;;;;;;2076578;28;20088;-63
2021/04/16 02:55:46;;;;;;;20.30;5.00;;;0.70;99.90;;;;;;2079182;28;20044;-64
2021/04/16 02:56:47;;;;;;;20.95;5.10;;;0.70;99.90;;;;;;2073464;28;20100;-64
2021/04/16 02:57:48;;;;;;;17.00;4.90;;;0.70;99.90;;;;;;2079384;28;20095;-64
2021/04/16 02:58:49;;;;;;;17.42;5.70;;;0.70;99.90;;;;;;2077743;28;20322;-64
2021/04/16 02:59:50;;;;;;;14.60;4.38;;;0.80;99.90;;;;;;2079689;28;20712;-64
2021/04/16 03:00:50;;;;;;;32.03;6.30;;;0.80;99.90;;;;;;2077764;28;20028;-64
2021/04/16 03:01:52;;;;;;;15.20;5.90;;;0.80;99.90;;;;;;2079503;28;20045;-64
2021/04/16 03:02:54;;;;;;;17.17;6.45;;;0.90;99.90;;;;;;2079253;28;20029;-64
2021/04/16 03:03:54;;;;;;;22.35;7.00;;;1.00;99.90;;;;;;2080626;28;20032;-64
2021/04/16 03:04:55;;;;;;;19.20;6.63;;;1.10;99.90;;;;;;2073316;28;20044;-64
2021/04/16 03:05:56;;;;;;;24.15;7.57;;;1.20;99.90;;;;;;2073171;28;20497;-64
2021/04/16 03:06:56;;;;;;;18.10;7.03;;;1.30;99.90;;;;;;2072358;28;20413;-64
2021/04/16 03:07:57;;;;;;;21.90;6.47;;;1.30;99.90;;;;;;2074420;28;20022;-64
2021/04/16 03:09:01;;;;;;;19.23;8.10;;;1.30;99.90;;;;;;2074853;28;20064;-64
2021/04/16 03:10:03;;;;;;;18.42;7.28;;;1.40;99.90;;;;;;2080000;28;20017;-64
2021/04/16 03:11:05;;;;;;;17.33;7.38;;;1.40;99.90;;;;;;2079705;28;20024;-64
2021/04/16 03:12:06;;;;;;;22.92;7.82;;;1.50;99.90;;;;;;2079560;28;20029;-64
2021/04/16 03:13:07;;;;;;;25.90;8.07;;;1.50;99.90;;;;;;2079214;28;20019;-64
2021/04/16 03:14:08;;;;;;;23.30;8.85;;;1.60;99.90;;;;;;2080483;28;20757;-64
2021/04/16 03:15:10;;;;;;;19.08;7.93;;;1.60;99.90;;;;;;2080139;28;20021;-64
2021/04/16 03:16:10;;;;;;;26.30;8.18;;;1.60;99.90;;;;;;2076158;28;20022;-64
2021/04/16 03:17:11;;;;;;;17.13;7.75;;;1.60;99.90;;;;;;2073886;28;20570;-64
2021/04/16 03:18:12;;;;;;;20.25;8.10;;;1.60;99.90;;;;;;2075969;28;20106;-64
2021/04/16 03:19:13;;;;;;;23.30;6.20;;;1.60;99.90;;;;;;2077169;28;20049;-64
2021/04/16 03:20:16;;;;;;;23.00;7.43;;;1.60;99.90;;;;;;2079960;28;20029;-64
2021/04/16 03:21:16;;;;;;;14.90;7.07;;;1.60;99.90;;;;;;2078520;28;20026;-64
2021/04/16 03:22:17;;;;;;;16.60;6.85;;;1.50;99.90;;;;;;2071906;28;20041;-64
2021/04/16 03:23:18;;;;;;;14.10;7.45;;;1.50;99.90;;;;;;2072488;28;20060;-64
2021/04/16 03:24:19;;;;;;;27.02;8.00;;;1.50;99.90;;;;;;2074067;28;20029;-63
2021/04/16 03:25:19;;;;;;;27.25;8.02;;;1.50;99.90;;;;;;2072042;28;20028;-64
2021/04/16 03:26:20;;;;;;;25.33;7.82;;;1.50;99.90;;;;;;2073619;28;20022;-64
2021/04/16 03:27:21;;;;;;;17.83;8.95;;;1.50;99.90;;;;;;2071556;28;20040;-64
2021/04/16 03:28:22;;;;;;;23.48;8.93;;;1.50;99.90;;;;;;2072704;28;20018;-64
2021/04/16 03:29:22;;;;;;;18.58;7.80;;;1.50;99.90;;;;;;2076062;28;20463;-64
2021/04/16 03:30:25;;;;;;;23.27;8.90;;;1.50;99.90;;;;;;2072487;28;20025;-64
2021/04/16 03:31:27;;;;;;;20.80;8.02;;;1.50;99.90;;;;;;2077992;28;20103;-64
2021/04/16 03:32:28;;;;;;;18.15;7.70;;;1.50;99.90;;;;;;2079328;28;20033;-64
2021/04/16 03:33:29;;;;;;;22.95;8.80;;;1.50;99.90;;;;;;2077335;28;20029;-64
2021/04/16 03:34:30;;;;;;;27.73;8.60;;;1.50;99.90;;;;;;2073998;28;20023;-64
2021/04/16 03:35:31;;;;;;;24.80;9.05;;;1.60;99.90;;;;;;2078778;28;20030;-64
2021/04/16 03:36:32;;;;;;;27.33;10.50;;;1.70;99.90;;;;;;2071565;28;20029;-64
2021/04/16 03:37:32;;;;;;;20.63;8.77;;;1.70;99.90;;;;;;2072185;28;20152;-64
2021/04/16 03:38:33;;;;;;;19.88;9.40;;;1.60;99.90;;;;;;2078967;28;20108;-64
2021/04/16 03:39:34;;;;;;;28.48;11.38;;;1.60;99.90;;;;;;2075154;28;20144;-64
2021/04/16 03:40:35;;;;;;;28.15;9.95;;;1.70;99.90;;;;;;2080316;28;20029;-64
2021/04/16 03:41:35;;;;;;;22.95;10.27;;;1.70;99.90;;;;;;2073469;28;20044;-64
2021/04/16 03:42:36;;;;;;;29.90;10.82;;;1.70;99.90;;;;;;2071452;28;20448;-64
2021/04/16 03:43:37;;;;;;;20.13;10.85;;;1.70;99.90;;;;;;2076230;28;20052;-64
2021/04/16 03:44:37;;;;;;;40.35;11.30;;;1.70;99.90;;;;;;2072390;28;20087;-64
2021/04/16 03:45:38;;;;;;;26.25;10.82;;;1.80;99.90;;;;;;2072259;28;20457;-64
2021/04/16 03:46:38;;;;;;;29.25;11.52;;;1.80;99.90;;;;;;2077416;28;20110;-64
2021/04/16 03:47:40;;;;;;;28.52;10.77;;;1.80;99.90;;;;;;2080004;28;20104;-64
2021/04/16 03:48:41;;;;;;;28.15;12.35;;;1.80;99.90;;;;;;2072454;28;20026;-64
2021/04/16 03:49:43;;;;;;;26.40;11.75;;;1.90;99.90;;;;;;2078821;28;20516;-64
2021/04/16 03:50:43;;;;;;;36.40;12.02;;;1.90;99.90;;;;;;2076970;28;20033;-64
2021/04/16 03:51:57;;;;;;;24.38;12.05;;;1.90;99.90;;;;;;2072463;28;20084;-64
2021/04/16 03:52:58;;;;;;;18.85;11.20;;;1.90;99.90;;;;;;2074671;28;20556;-64
2021/04/16 03:54:01;;;;;;;22.50;11.68;;;2.00;99.90;;;;;;2079395;28;20041;-64
2021/04/16 03:55:03;;;;;;;34.28;12.73;;;2.00;99.90;;;;;;2075702;28;20021;-64
2021/04/16 03:56:06;;;;;;;;;;;2.10;99.90;;;;;;2085674;28;20107;-64
2021/04/16 03:57:10;;;;;;;28.38;11.48;;;2.00;99.90;;;;;;2072800;28;19997;-64
2021/04/16 03:58:12;;;;;;;32.88;11.90;;;2.00;99.90;;;;;;2080601;28;20143;-64
2021/04/16 03:59:12;;;;;;;32.33;12.85;;;2.00;99.90;;;;;;2072857;28;20057;-64
2021/04/16 04:00:18;;;;;;;24.35;11.20;;;2.00;99.90;;;;;;2079457;28;20060;-64
2021/04/16 04:01:19;;;;;;;24.75;10.48;;;1.90;99.90;;;;;;2073910;28;20050;-64
2021/04/16 04:02:20;;;;;;;23.88;11.27;;;1.90;99.90;;;;;;2073194;28;20020;-65
2021/04/16 04:03:21;;;;;;;23.70;10.93;;;1.80;99.90;;;;;;2081655;28;20047;-64
2021/04/16 04:04:22;;;;;;;22.20;10.20;;;1.70;99.90;;;;;;2077659;28;20030;-64
2021/04/16 04:05:24;;;;;;;21.38;9.68;;;1.70;99.90;;;;;;2073296;28;20104;-64
2021/04/16 04:06:24;;;;;;;20.38;9.80;;;1.70;99.90;;;;;;2074466;28;20030;-64
2021/04/16 04:07:25;;;;;;;21.35;9.98;;;1.60;99.90;;;;;;2076231;28;20029;-64
2021/04/16 04:08:26;;;;;;;25.10;10.07;;;1.50;99.90;;;;;;2081390;28;20031;-64
2021/04/16 04:09:27;;;;;;;17.67;9.13;;;1.50;99.90;;;;;;2080576;28;20026;-64
2021/04/16 04:10:34;;;;;;;27.83;9.30;;;1.40;99.90;;;;;;2080943;28;20022;-64
2021/04/16 04:11:35;;;;;;;21.55;10.15;;;1.40;99.90;;;;;;2078771;28;20806;-64
2021/04/16 04:12:35;;;;;;;21.10;9.52;;;1.30;99.90;;;;;;2072423;28;20030;-64
2021/04/16 04:13:36;;;;;;;25.38;9.38;;;1.30;99.90;;;;;;2073579;28;20026;-64
2021/04/16 04:14:37;;;;;;;19.50;9.85;;;1.20;99.90;;;;;;2075946;28;20504;-64
2021/04/16 04:15:39;;;;;;;23.48;10.25;;;1.20;99.90;;;;;;2079212;28;20029;-64
2021/04/16 04:17:00;;;;;;;18.92;9.57;;;1.20;99.90;;;;;;2080106;28;20022;-64
2021/04/16 04:18:04;;;;;;;22.15;9.32;;;1.10;99.90;;;;;;2080673;28;20122;-64
2021/04/16 04:19:05;;;;;;;21.83;9.68;;;1.10;99.90;;;;;;2080189;28;20132;-64
2021/04/16 04:20:14;;;;;;;22.88;9.60;;;1.10;99.90;;;;;;2078947;28;20025;-64
2021/04/16 04:21:14;;;;;;;22.13;10.25;;;1.10;99.90;;;;;;2077228;28;20041;-64
2021/04/16 04:22:15;;;;;;;23.02;10.48;;;1.10;99.90;;;;;;2072465;28;20026;-64
2021/04/16 04:23:16;;;;;;;28.67;11.10;;;1.00;99.90;;;;;;2075754;28;20083;-65
2021/04/16 04:24:17;;;;;;;19.65;10.80;;;1.00;99.90;;;;;;2076902;28;20378;-64
2021/04/16 04:25:22;;;;;;;23.65;10.68;;;1.00;99.90;;;;;;2075897;28;20030;-64
2021/04/16 04:26:23;;;;;;;21.85;9.90;;;1.00;99.90;;;;;;2076027;28;20063;-65
2021/04/16 04:27:24;;;;;;;22.95;10.90;;;1.00;99.90;;;;;;2077219;28;20026;-65
2021/04/16 04:28:25;;;;;;;26.52;10.23;;;1.00;99.90;;;;;;2077621;28;20044;-65
2021/04/16 04:29:26;;;;;;;19.83;10.57;;;0.90;99.90;;;;;;2078398;28;20029;-65
2021/04/16 04:30:31;;;;;;;26.35;11.18;;;0.90;99.90;;;;;;2079443;28;20783;-65
2021/04/16 04:31:32;;;;;;;27.65;11.93;;;0.90;99.90;;;;;;2079614;28;20057;-65
2021/04/16 04:32:32;;;;;;;33.05;12.07;;;0.90;99.90;;;;;;2081287;28;20021;-64
2021/04/16 04:33:33;;;;;;;29.50;12.18;;;0.90;99.90;;;;;;2081238;28;20684;-65
2021/04/16 04:34:34;;;;;;;27.00;13.45;;;0.80;99.90;;;;;;2076633;28;20068;-65
2021/04/16 04:35:35;;;;;;;30.52;12.75;;;0.80;99.90;;;;;;2075808;28;20117;-65
2021/04/16 04:36:35;;;;;;;34.65;12.00;;;0.70;99.90;;;;;;2080710;28;20039;-65
2021/04/16 04:37:37;;;;;;;27.08;12.57;;;0.70;99.90;;;;;;2080961;28;20025;-64
2021/04/16 04:38:37;;;;;;;27.17;12.50;;;0.60;99.90;;;;;;2080989;28;20021;-65
2021/04/16 04:39:43;;;;;;;26.27;12.30;;;0.60;99.90;;;;;;2079865;28;20454;-65
2021/04/16 04:40:44;;;;;;;25.70;12.35;;;0.60;99.90;;;;;;2081027;28;20029;-65
2021/04/16 04:41:45;;;;;;;32.80;13.00;;;0.50;99.90;;;;;;2080462;28;20108;-65
2021/04/16 04:42:46;;;;;;;29.48;12.82;;;0.50;99.90;;;;;;2077989;28;20025;-65
2021/04/16 04:43:47;;;;;;;30.73;11.77;;;0.40;99.90;;;;;;2078214;28;20666;-64
2021/04/16 04:44:47;;;;;;;28.75;12.52;;;0.40;99.90;;;;;;2075231;28;20025;-65
2021/04/16 04:45:48;;;;;;;26.77;12.43;;;0.30;99.90;;;;;;2080268;28;20022;-65
2021/04/16 04:46:49;;;;;;;31.38;12.77;;;0.30;99.90;;;;;;2080902;28;20018;-64
2021/04/16 04:47:50;;;;;;;28.58;12.20;;;0.30;99.90;;;;;;2080339;28;20029;-65
2021/04/16 04:48:51;;;;;;;24.80;11.82;;;0.30;99.90;;;;;;2080399;28;20044;-65
2021/04/16 04:49:52;;;;;;;23.40;12.07;;;0.20;99.90;;;;;;2079400;28;20022;-64
2021/04/16 04:50:53;;;;;;;28.15;11.05;;;0.20;99.90;;;;;;2081228;28;20028;-65
2021/04/16 04:52:08;;;;;;;21.20;11.35;;;0.10;99.90;;;;;;2077755;28;20630;-65
2021/04/16 04:53:08;;;;;;;24.23;10.95;;;0.10;99.90;;;;;;2077427;28;20026;-65
2021/04/16 04:54:10;;;;;;;22.27;10.73;;;0.10;99.90;;;;;;2076829;28;20127;-65
2021/04/16 04:55:17;;;;;;;26.50;11.13;;;0.00;99.90;;;;;;2075770;28;20055;-65
2021/04/16 04:56:18;;;;;;;21.80;11.43;;;0.00;99.90;;;;;;2065125;28;20065;-65
2021/04/16 04:57:22;;;;;;;21.83;11.30;;;-0.10;99.90;;;;;;2071443;28;20025;-64
2021/04/16 04:58:22;;;;;;;26.52;11.05;;;-0.10;99.90;;;;;;2068647;28;20029;-65
2021/04/16 04:59:23;;;;;;;19.88;10.88;;;-0.10;99.90;;;;;;2070426;28;20418;-65
2021/04/16 05:00:25;;;;;;;22.73;10.98;;;-0.10;99.90;;;;;;2080165;28;20029;-65
2021/04/16 05:01:25;;;;;;;18.63;10.82;;;-0.20;99.90;;;;;;2074044;28;20048;-65
2021/04/16 05:02:26;;;;;;;23.38;11.70;;;-0.20;99.90;;;;;;2072615;28;20547;-64
2021/04/16 05:03:27;;;;;;;25.73;11.23;;;-0.20;99.90;;;;;;2074042;28;20048;-64
2021/04/16 05:04:28;;;;;;;29.08;11.70;;;-0.20;99.90;;;;;;2075949;28;20028;-64
2021/04/16 05:05:29;;;;;;;20.95;11.27;;;-0.20;99.90;;;;;;2081249;28;20052;-64
2021/04/16 05:06:29;;;;;;;23.42;11.35;;;-0.20;99.90;;;;;;2074702;28;20014;-64
2021/04/16 05:07:30;;;;;;;28.48;12.27;;;-0.10;99.90;;;;;;2076856;28;20026;-64
2021/04/16 05:08:31;;;;;;;22.08;11.98;;;-0.20;99.90;;;;;;2081106;28;20017;-64
2021/04/16 05:09:31;;;;;;;20.92;11.68;;;-0.20;99.90;;;;;;2079051;28;20029;-64
2021/04/16 05:10:32;;;;;;;20.67;11.52;;;-0.20;99.90;;;;;;2072585;28;20658;-64
2021/04/16 05:11:33;;;;;;;27.08;12.60;;;-0.20;99.90;;;;;;2078306;28;20096;-64
2021/04/16 05:12:34;;;;;;;29.05;12.75;;;-0.30;99.90;;;;;;2074255;28;20093;-64
2021/04/16 05:13:35;;;;;;;28.38;12.63;;;-0.30;99.90;;;;;;2074929;28;20026;-64
2021/04/16 05:14:36;;;;;;;24.52;11.88;;;-0.30;99.90;;;;;;2078233;28;20109;-64
2021/04/16 05:15:36;;;;;;;27.50;12.95;;;-0.30;99.90;;;;;;2067650;28;20034;-64
2021/04/16 05:16:37;;;;;;;25.42;12.75;;;-0.30;99.90;;;;;;2077164;28;20401;-64
2021/04/16 05:17:38;;;;;;;25.38;12.95;;;-0.30;99.90;;;;;;2080501;28;20021;-64
2021/04/16 05:18:38;;;;;;;28.73;13.68;;;-0.30;99.90;;;;;;2079149;28;20053;-64
2021/04/16 05:19:39;;;;;;;29.20;13.10;;;-0.40;99.90;;;;;;2079083;28;20445;-64
2021/04/16 05:20:40;;;;;;;25.60;13.35;;;-0.30;99.90;;;;;;2079785;28;20412;-64
2021/04/16 05:21:41;;;;;;;25.20;13.43;;;-0.30;99.90;;;;;;2079396;28;20124;-64
2021/04/16 05:22:41;;;;;;;26.65;13.00;;;-0.40;99.90;;;;;;2080470;28;20029;-64
2021/04/16 05:23:42;;;;;;;23.13;13.00;;;-0.40;99.90;;;;;;2080170;28;20018;-64